Time;durP1;ratioP1;P1;durP2;ratioP2;P2;SDS_P1;SDS_P2;PMS_P1;PMS_P2;Temp;Humidity;BMP_temperature;BMP_pressure;BME280_temperature;BME280_humidity;BME280_pressure;Samples;Min_cycle;Max_cycle;Signal;HPM_P1;HPM_P2
2021/12/06 00:02:15;;;;;;;13.18;10.43;;;4.40;98.70;;;;;;5059557;28;20099;-64
2021/12/06 00:04:41;;;;;;;15.75;10.65;;;4.40;98.80;;;;;;5059530;28;20404;-65
2021/12/06 00:07:14;;;;;;;14.98;11.18;;;4.40;98.90;;;;;;5058179;28;20279;-65
2021/12/06 00:09:40;;;;;;;16.50;11.65;;;4.40;98.80;;;;;;5053378;28;20025;-65
2021/12/06 00:12:06;;;;;;;13.50;10.57;;;4.40;98.80;;;;;;5055537;28;20658;-65
2021/12/06 00:14:36;;;;;;;14.73;11.20;;;4.40;98.80;;;;;;5058444;28;20102;-66
2021/12/06 00:17:06;;;;;;;14.63;11.00;;;4.40;98.80;;;;;;5059738;28;20158;-65
2021/12/06 00:19:32;;;;;;;15.30;10.65;;;4.40;98.60;;;;;;5055483;28;20027;-64
2021/12/06 00:22:00;;;;;;;14.00;11.20;;;4.40;98.80;;;;;;5050757;28;20025;-65
2021/12/06 00:24:26;;;;;;;15.48;11.00;;;4.40;98.80;;;;;;5056476;28;20054;-66
2021/12/06 00:26:53;;;;;;;13.25;10.20;;;4.40;98.80;;;;;;5055662;28;20032;-66
2021/12/06 00:29:18;;;;;;;13.50;10.55;;;4.40;98.70;;;;;;5054969;28;20074;-66
2021/12/06 00:31:47;;;;;;;19.45;13.77;;;4.40;98.70;;;;;;5053149;28;20364;-65
2021/12/06 00:34:16;;;;;;;27.05;21.23;;;4.40;98.80;;;;;;5059482;28;20657;-64
2021/12/06 00:36:53;;;;;;;24.67;18.23;;;4.40;98.90;;;;;;5056346;28;20047;-65
2021/12/06 00:39:20;;;;;;;48.42;36.67;;;4.50;98.80;;;;;;5060236;28;20478;-65
2021/12/06 00:41:46;;;;;;;141.32;105.10;;;4.50;98.80;;;;;;5055663;28;20072;-65
2021/12/06 00:44:12;;;;;;;18.58;14.75;;;4.50;98.70;;;;;;5058834;28;20113;-65
2021/12/06 00:46:39;;;;;;;14.25;10.05;;;4.50;98.70;;;;;;5061594;28;20033;-65
2021/12/06 00:49:10;;;;;;;14.77;11.10;;;4.50;98.70;;;;;;5062524;28;20028;-66
2021/12/06 00:51:36;;;;;;;15.23;9.27;;;4.50;98.70;;;;;;5058114;28;20068;-67
2021/12/06 00:54:02;;;;;;;23.65;18.63;;;4.50;98.70;;;;;;5060414;28;20051;-66
2021/12/06 00:56:28;;;;;;;15.27;10.40;;;4.50;98.70;;;;;;5060887;28;20084;-67
2021/12/06 00:58:54;;;;;;;18.00;12.98;;;4.50;98.70;;;;;;5063577;28;20028;-66
2021/12/06 01:01:20;;;;;;;43.75;34.13;;;4.50;98.80;;;;;;5064733;28;20036;-66
2021/12/06 01:03:46;;;;;;;41.40;30.67;;;4.50;98.70;;;;;;5061097;28;20621;-67
2021/12/06 01:06:13;;;;;;;27.52;21.60;;;4.50;98.80;;;;;;5059887;28;20083;-68
2021/12/06 01:08:39;;;;;;;18.70;14.35;;;4.50;98.70;;;;;;5061210;28;20055;-67
2021/12/06 01:11:06;;;;;;;22.80;18.40;;;4.50;98.70;;;;;;5064000;28;20040;-68
2021/12/06 01:13:32;;;;;;;11.63;9.48;;;4.50;98.60;;;;;;5062076;28;20044;-68
2021/12/06 01:15:58;;;;;;;13.75;10.65;;;4.50;98.60;;;;;;5064385;28;20024;-67
2021/12/06 01:18:25;;;;;;;14.30;10.10;;;4.50;98.70;;;;;;5064402;28;20048;-67
2021/12/06 01:21:00;;;;;;;16.40;11.82;;;4.50;98.70;;;;;;5062679;28;20033;-67
2021/12/06 01:23:32;;;;;;;16.33;10.98;;;4.50;98.60;;;;;;5062004;28;20734;-68
2021/12/06 01:31:11;;;;;;;11.50;8.77;;;4.50;98.80;;;;;;5064304;28;20151;-68
2021/12/06 01:41:37;;;;;;;22.50;17.13;;;4.50;98.80;;;;;;5064299;28;20040;-67
2021/12/06 01:44:09;;;;;;;15.88;11.70;;;4.50;98.80;;;;;;5057441;28;20036;-66
2021/12/06 01:46:50;;;;;;;14.07;11.27;;;4.50;98.90;;;;;;5061723;28;20473;-67
2021/12/06 01:49:18;;;;;;;12.13;9.23;;;4.50;98.90;;;;;;5061493;28;20036;-67
2021/12/06 01:51:45;;;;;;;13.77;9.95;;;4.50;98.90;;;;;;5061625;28;20582;-66
2021/12/06 01:54:11;;;;;;;33.63;26.60;;;4.50;99.00;;;;;;5060164;28;20035;-67
2021/12/06 01:56:37;;;;;;;13.95;10.93;;;4.40;98.90;;;;;;5060509;28;20581;-67
2021/12/06 01:59:04;;;;;;;19.05;14.20;;;4.50;98.90;;;;;;5060741;28;20031;-66
2021/12/06 02:01:30;;;;;;;18.35;15.57;;;4.50;98.80;;;;;;5060525;28;20032;-67
2021/12/06 02:03:56;;;;;;;25.95;22.30;;;4.50;98.80;;;;;;5059727;28;20144;-67
2021/12/06 02:06:22;;;;;;;13.57;11.18;;;4.60;98.80;;;;;;5067869;28;20029;-67
2021/12/06 02:08:48;;;;;;;11.23;8.38;;;4.50;98.70;;;;;;5061535;28;20033;-68
2021/12/06 02:11:14;;;;;;;10.40;8.18;;;4.50;98.70;;;;;;5061201;28;20372;-66
2021/12/06 02:13:57;;;;;;;11.23;7.78;;;4.50;98.70;;;;;;5063155;28;20053;-67
2021/12/06 02:16:32;;;;;;;11.45;8.30;;;4.50;98.60;;;;;;5064868;28;20084;-67
2021/12/06 02:19:03;;;;;;;10.90;8.15;;;4.50;98.50;;;;;;5057431;28;20025;-67
2021/12/06 02:21:36;;;;;;;10.35;8.38;;;4.50;98.70;;;;;;5062746;28;20036;-66
2021/12/06 02:24:08;;;;;;;10.10;8.13;;;4.50;98.80;;;;;;5060084;28;20025;-66
2021/12/06 02:26:33;;;;;;;;;;;4.40;98.60;;;;;;5063168;28;20162;-66
2021/12/06 02:28:59;;;;;;;9.38;8.02;;;4.50;98.70;;;;;;5058596;28;19999;-65
2021/12/06 02:31:26;;;;;;;10.80;8.60;;;4.40;98.70;;;;;;5060291;28;20055;-67
2021/12/06 02:33:52;;;;;;;8.80;7.10;;;4.50;98.90;;;;;;5060162;28;20865;-67
2021/12/06 02:36:21;;;;;;;8.98;7.22;;;4.40;98.70;;;;;;5061322;28;20021;-67
2021/12/06 02:38:48;;;;;;;8.35;6.97;;;4.50;98.80;;;;;;5060561;28;20029;-67
2021/12/06 02:41:15;;;;;;;9.13;6.50;;;4.40;98.70;;;;;;5062054;28;20118;-67
2021/12/06 02:43:42;;;;;;;7.25;6.40;;;4.40;98.70;;;;;;5063056;28;20028;-67
2021/12/06 02:46:08;;;;;;;7.15;5.97;;;4.50;98.80;;;;;;5067416;28;20103;-67
2021/12/06 02:48:34;;;;;;;6.53;5.78;;;4.50;98.80;;;;;;5057678;28;20077;-67
2021/12/06 02:51:05;;;;;;;7.18;6.47;;;4.50;98.80;;;;;;5056769;28;21042;-67
2021/12/06 02:53:33;;;;;;;5.80;5.18;;;4.50;98.80;;;;;;5059042;28;20706;-68
2021/12/06 02:56:04;;;;;;;13.25;11.73;;;4.50;98.60;;;;;;5057104;28;20031;-67
2021/12/06 03:01:06;;;;;;;8.38;7.38;;;4.50;98.70;;;;;;5058776;28;20056;-67
2021/12/06 03:03:32;;;;;;;5.60;4.57;;;4.50;98.70;;;;;;5052242;28;20040;-67
2021/12/06 03:05:58;;;;;;;7.32;6.50;;;4.50;98.70;;;;;;5054982;28;20032;-66
2021/12/06 03:09:06;;;;;;;7.63;5.97;;;4.50;98.80;;;;;;5053971;28;20028;-67
2021/12/06 03:11:36;;;;;;;6.43;5.38;;;4.50;98.90;;;;;;5047092;28;20056;-67
2021/12/06 03:14:03;;;;;;;6.30;5.20;;;4.50;98.80;;;;;;5053061;28;20826;-67
2021/12/06 03:16:29;;;;;;;5.60;4.32;;;4.50;98.90;;;;;;5055555;28;20029;-67
2021/12/06 03:18:56;;;;;;;4.63;4.13;;;4.50;98.70;;;;;;5054191;28;20035;-66
2021/12/06 03:21:23;;;;;;;5.00;4.38;;;4.50;98.80;;;;;;5056343;28;20037;-67
2021/12/06 03:23:49;;;;;;;6.40;5.47;;;4.50;98.80;;;;;;5038129;28;21244;-66
2021/12/06 03:26:15;;;;;;;5.72;4.93;;;4.50;98.90;;;;;;5052628;28;20087;-67
2021/12/06 03:28:46;;;;;;;5.55;4.35;;;4.50;98.80;;;;;;5050835;28;20040;-67
2021/12/06 03:31:13;;;;;;;5.10;4.32;;;4.50;98.90;;;;;;5036474;28;20391;-66
2021/12/06 03:33:41;;;;;;;4.93;4.05;;;4.60;98.90;;;;;;5054942;28;20159;-66
2021/12/06 03:36:09;;;;;;;4.75;4.22;;;4.60;98.90;;;;;;5057171;28;20039;-67
2021/12/06 03:38:35;;;;;;;5.03;4.53;;;4.60;98.70;;;;;;5052488;28;20038;-67
2021/12/06 03:41:02;;;;;;;5.20;4.68;;;4.60;98.70;;;;;;5054787;28;20056;-68
2021/12/06 03:43:28;;;;;;;4.72;3.88;;;4.60;98.80;;;;;;5050882;28;20056;-66
2021/12/06 03:45:54;;;;;;;4.53;4.00;;;4.60;98.80;;;;;;5051191;28;20438;-67
2021/12/06 03:48:19;;;;;;;5.55;4.70;;;4.60;98.80;;;;;;5054072;28;20041;-67
2021/12/06 03:50:45;;;;;;;4.72;3.88;;;4.60;98.70;;;;;;5052965;28;20039;-67
2021/12/06 03:53:11;;;;;;;5.10;4.60;;;4.60;98.80;;;;;;5053602;28;20055;-67
2021/12/06 03:55:37;;;;;;;4.93;4.25;;;4.60;98.90;;;;;;5056606;28;20040;-66
2021/12/06 03:58:03;;;;;;;7.22;4.35;;;4.60;98.80;;;;;;5053284;28;20158;-67
2021/12/06 04:00:29;;;;;;;5.55;4.18;;;4.60;98.90;;;;;;5050033;28;20029;-68
2021/12/06 04:02:55;;;;;;;5.80;4.32;;;4.60;98.80;;;;;;5057401;28;20029;-68
2021/12/06 04:05:20;;;;;;;5.60;4.00;;;4.50;98.80;;;;;;5053691;28;20036;-67
2021/12/06 04:07:46;;;;;;;6.85;4.60;;;4.50;98.90;;;;;;5052613;28;20032;-66
2021/12/06 04:10:12;;;;;;;5.50;4.30;;;4.60;98.90;;;;;;5053451;28;20036;-67
2021/12/06 04:12:39;;;;;;;6.07;4.15;;;4.60;98.90;;;;;;5054613;28;20033;-67
2021/12/06 04:15:08;;;;;;;10.00;4.05;;;4.50;98.80;;;;;;5053584;28;20033;-67
2021/12/06 04:17:35;;;;;;;6.82;5.47;;;4.50;98.80;;;;;;5055944;28;20029;-67
2021/12/06 04:20:01;;;;;;;4.63;4.20;;;4.60;98.80;;;;;;5050557;28;20029;-68
2021/12/06 04:22:27;;;;;;;9.32;3.97;;;4.50;98.90;;;;;;5051851;28;20033;-67
2021/12/06 04:24:53;;;;;;;4.20;3.33;;;4.50;98.90;;;;;;5052768;28;20114;-68
2021/12/06 04:27:21;;;;;;;5.07;3.47;;;4.50;99.00;;;;;;5054748;28;20402;-67
2021/12/06 04:29:50;;;;;;;3.97;3.58;;;4.60;99.10;;;;;;5057916;28;20517;-68
2021/12/06 04:32:16;;;;;;;6.15;3.55;;;4.60;99.00;;;;;;5059590;28;20036;-67
2021/12/06 04:34:42;;;;;;;5.70;4.30;;;4.60;99.00;;;;;;5054799;28;20028;-66
2021/12/06 04:37:08;;;;;;;6.60;4.38;;;4.70;98.90;;;;;;5057765;28;20047;-67
2021/12/06 04:39:34;;;;;;;11.10;5.15;;;4.60;98.90;;;;;;5057549;28;20024;-66
2021/12/06 04:42:01;;;;;;;8.77;4.88;;;4.70;99.00;;;;;;5061688;28;20052;-67
2021/12/06 04:44:26;;;;;;;4.88;4.03;;;4.70;99.00;;;;;;5058874;28;20035;-66
2021/12/06 04:46:53;;;;;;;4.25;3.85;;;4.70;98.90;;;;;;5062383;28;20029;-66
2021/12/06 04:49:18;;;;;;;4.65;4.00;;;4.70;98.90;;;;;;5060527;28;20075;-66
2021/12/06 04:51:48;;;;;;;3.90;3.50;;;4.70;98.80;;;;;;5059598;28;20677;-67
2021/12/06 04:54:15;;;;;;;4.22;3.35;;;4.70;98.80;;;;;;5059235;28;20024;-67
2021/12/06 04:56:58;;;;;;;3.90;3.13;;;4.70;98.80;;;;;;5056640;28;21470;-68
2021/12/06 04:59:37;;;;;;;3.92;3.53;;;4.80;98.80;;;;;;5059338;28;20032;-68
2021/12/06 05:02:12;;;;;;;4.22;3.47;;;4.80;98.80;;;;;;5061985;28;20037;-67
2021/12/06 05:04:40;;;;;;;3.60;3.22;;;4.80;98.60;;;;;;5060895;28;20028;-66
2021/12/06 05:07:15;;;;;;;3.63;3.00;;;4.90;98.70;;;;;;5057267;28;20025;-67
2021/12/06 05:09:42;;;;;;;4.78;3.75;;;4.90;98.60;;;;;;5057030;28;20035;-65
2021/12/06 05:12:11;;;;;;;4.60;4.00;;;4.90;98.60;;;;;;5060108;28;20029;-66
2021/12/06 05:14:38;;;;;;;5.90;5.30;;;4.90;98.50;;;;;;5057657;28;20067;-67
2021/12/06 05:17:04;;;;;;;8.23;6.55;;;4.90;98.50;;;;;;5062207;28;20033;-68
2021/12/06 05:19:30;;;;;;;7.25;5.97;;;4.80;98.60;;;;;;5058320;28;20036;-67
2021/12/06 05:21:56;;;;;;;5.95;5.13;;;4.70;98.80;;;;;;5057024;28;20037;-67
2021/12/06 05:24:22;;;;;;;6.78;4.53;;;4.50;99.10;;;;;;5058692;28;20048;-67
2021/12/06 05:26:47;;;;;;;5.38;3.55;;;4.50;99.10;;;;;;5059747;28;20086;-68
2021/12/06 05:29:19;;;;;;;4.40;3.65;;;4.40;99.20;;;;;;5057996;28;20060;-66
2021/12/06 05:31:55;;;;;;;4.10;3.50;;;4.30;99.50;;;;;;5060522;28;20128;-67
2021/12/06 05:34:28;;;;;;;4.70;3.65;;;4.30;99.60;;;;;;5062943;28;20491;-66
2021/12/06 05:36:53;;;;;;;12.85;9.73;;;4.40;99.60;;;;;;5062434;28;20033;-66
2021/12/06 05:39:19;;;;;;;10.70;8.88;;;4.50;99.30;;;;;;5064233;28;20020;-67
2021/12/06 05:41:45;;;;;;;12.38;10.43;;;4.60;99.20;;;;;;5064263;28;20040;-67
2021/12/06 05:44:11;;;;;;;13.35;10.88;;;4.60;99.20;;;;;;5059478;28;20090;-66
2021/12/06 05:46:36;;;;;;;16.05;11.70;;;4.60;99.10;;;;;;5061199;28;20086;-67
2021/12/06 05:49:03;;;;;;;13.38;10.88;;;4.60;99.00;;;;;;5058396;28;20025;-67
2021/12/06 05:51:29;;;;;;;11.43;9.98;;;4.70;99.00;;;;;;5062866;28;20037;-67
2021/12/06 05:53:54;;;;;;;10.10;7.80;;;4.70;98.70;;;;;;5062363;28;20793;-66
2021/12/06 05:56:21;;;;;;;4.03;3.38;;;4.60;98.80;;;;;;5064082;28;20045;-66
2021/12/06 05:58:46;;;;;;;3.20;2.65;;;4.50;98.80;;;;;;5059827;28;20104;-67
2021/12/06 06:01:13;;;;;;;2.22;2.03;;;4.50;98.70;;;;;;5062842;28;20124;-67
2021/12/06 06:03:39;;;;;;;2.28;2.08;;;4.50;98.90;;;;;;5059685;28;20037;-66
2021/12/06 06:06:05;;;;;;;3.65;3.05;;;4.40;99.00;;;;;;5062413;28;20040;-67
2021/12/06 06:08:30;;;;;;;6.38;4.93;;;4.40;99.00;;;;;;5061594;28;20034;-67
2021/12/06 06:10:56;;;;;;;8.93;5.95;;;4.40;99.10;;;;;;5059862;28;20641;-67
2021/12/06 06:13:22;;;;;;;8.55;4.38;;;4.50;99.20;;;;;;5058108;28;20036;-67
2021/12/06 06:15:50;;;;;;;7.72;4.47;;;4.40;99.10;;;;;;5058468;28;20043;-66
2021/12/06 06:18:17;;;;;;;14.23;7.93;;;4.50;99.20;;;;;;5059979;28;20025;-68
2021/12/06 06:20:48;;;;;;;9.75;6.13;;;4.50;99.10;;;;;;5055486;28;20043;-68
2021/12/06 06:23:14;;;;;;;70.63;36.97;;;4.50;99.00;;;;;;5056344;28;20031;-66
2021/12/06 06:25:40;;;;;;;75.40;40.10;;;4.60;98.90;;;;;;5062228;28;20281;-67
2021/12/06 06:28:06;;;;;;;40.30;25.25;;;4.60;99.00;;;;;;5059760;28;20033;-68
2021/12/06 06:30:33;;;;;;;45.70;25.38;;;4.70;98.90;;;;;;5061297;28;20032;-68
2021/12/06 06:32:58;;;;;;;22.80;13.73;;;4.70;99.00;;;;;;5059666;28;20036;-67
2021/12/06 06:35:24;;;;;;;8.05;6.15;;;4.70;98.90;;;;;;5060474;28;20037;-67
2021/12/06 06:37:50;;;;;;;4.93;3.20;;;4.70;98.90;;;;;;5057420;28;20036;-64
2021/12/06 06:40:17;;;;;;;3.72;3.10;;;4.80;99.10;;;;;;5059607;28;20524;-65
2021/12/06 06:42:44;;;;;;;3.05;2.50;;;4.90;98.80;;;;;;5055062;28;20063;-66
2021/12/06 06:45:15;;;;;;;5.35;3.42;;;4.90;98.90;;;;;;5055977;28;20043;-65
2021/12/06 06:47:41;;;;;;;3.77;3.17;;;4.90;98.70;;;;;;5062625;28;20487;-66
2021/12/06 06:50:08;;;;;;;9.80;5.65;;;4.90;98.80;;;;;;5053599;28;20321;-65
2021/12/06 06:52:34;;;;;;;5.50;3.33;;;4.90;98.90;;;;;;5059013;28;20029;-65
2021/12/06 06:55:03;;;;;;;3.97;3.30;;;4.90;98.90;;;;;;5054999;28;20029;-66
2021/12/06 06:57:28;;;;;;;16.25;10.10;;;4.90;98.80;;;;;;5059773;28;20032;-66
2021/12/06 06:59:54;;;;;;;6.53;4.75;;;4.90;98.70;;;;;;5058874;28;20030;-65
2021/12/06 07:02:20;;;;;;;6.95;5.10;;;4.70;98.60;;;;;;5060345;28;20037;-67
2021/12/06 07:04:49;;;;;;;4.38;3.50;;;4.50;99.00;;;;;;5057674;28;20032;-66
2021/12/06 07:07:14;;;;;;;3.35;2.67;;;4.60;99.20;;;;;;5061989;28;20032;-65
2021/12/06 07:09:42;;;;;;;7.80;4.60;;;4.60;99.00;;;;;;5059930;28;20112;-66
2021/12/06 07:12:14;;;;;;;6.68;4.97;;;4.70;99.00;;;;;;5065619;28;20107;-66
2021/12/06 07:14:41;;;;;;;8.68;5.40;;;4.80;98.90;;;;;;5062744;28;20036;-66
2021/12/06 07:17:06;;;;;;;8.38;5.70;;;4.90;99.00;;;;;;5063187;28;20033;-64
2021/12/06 07:19:32;;;;;;;6.80;4.88;;;4.90;98.70;;;;;;5060673;28;20063;-64
2021/12/06 07:21:58;;;;;;;5.95;4.88;;;5.00;98.70;;;;;;5062042;28;21813;-64
2021/12/06 07:24:24;;;;;;;7.40;4.63;;;5.00;98.70;;;;;;5060132;28;20035;-63
2021/12/06 07:26:50;;;;;;;6.50;5.22;;;5.00;98.60;;;;;;5063545;28;20036;-65
2021/12/06 07:29:16;;;;;;;6.97;5.35;;;5.00;98.60;;;;;;5061087;28;20040;-64
2021/12/06 07:31:41;;;;;;;6.43;5.70;;;5.00;98.40;;;;;;5057493;28;20051;-66
2021/12/06 07:34:07;;;;;;;21.05;18.85;;;4.80;98.70;;;;;;5057757;28;20031;-65
2021/12/06 07:36:33;;;;;;;17.77;12.40;;;4.70;98.80;;;;;;5060698;28;20066;-65
2021/12/06 07:38:58;;;;;;;10.50;7.20;;;4.70;99.00;;;;;;5061946;28;20413;-65
2021/12/06 07:41:28;;;;;;;19.17;9.82;;;4.70;99.00;;;;;;5060967;28;20056;-65
2021/12/06 07:43:55;;;;;;;29.15;14.52;;;4.70;99.20;;;;;;5057713;28;20119;-65
2021/12/06 07:46:20;;;;;;;25.67;11.75;;;4.80;99.10;;;;;;5057112;28;20035;-64
2021/12/06 07:48:52;;;;;;;33.10;19.92;;;4.90;99.00;;;;;;5058208;28;20285;-65
2021/12/06 07:51:19;;;;;;;11.20;7.88;;;5.00;99.00;;;;;;5056361;28;20048;-66
2021/12/06 07:53:45;;;;;;;10.23;6.63;;;5.00;98.80;;;;;;5060389;28;20090;-65
2021/12/06 07:56:11;;;;;;;5.50;4.82;;;5.10;98.80;;;;;;5059746;28;20048;-66
2021/12/06 07:58:36;;;;;;;3.85;3.45;;;5.10;98.70;;;;;;5056626;28;20159;-66
2021/12/06 08:01:03;;;;;;;5.90;4.70;;;5.00;98.50;;;;;;5059440;28;20040;-66
2021/12/06 08:03:31;;;;;;;5.65;3.40;;;4.90;98.70;;;;;;5057192;28;20033;-65
2021/12/06 08:05:58;;;;;;;6.55;4.05;;;4.90;98.80;;;;;;5055635;28;20078;-65
2021/12/06 08:08:27;;;;;;;3.05;2.78;;;5.00;98.80;;;;;;5056790;28;20078;-66
2021/12/06 08:10:58;;;;;;;3.33;2.63;;;5.00;98.60;;;;;;5059148;28;20063;-65
2021/12/06 08:13:28;;;;;;;2.97;2.67;;;4.80;98.60;;;;;;5056501;28;20668;-66
2021/12/06 08:15:58;;;;;;;2.88;2.67;;;4.60;98.80;;;;;;5056755;28;20029;-65
2021/12/06 08:18:24;;;;;;;3.42;3.13;;;4.60;99.00;;;;;;5055332;28;20570;-65
2021/12/06 08:20:51;;;;;;;2.97;2.60;;;4.50;99.10;;;;;;5056858;28;20238;-65
2021/12/06 08:23:16;;;;;;;7.63;5.60;;;4.60;99.10;;;;;;5053733;28;20064;-64
2021/12/06 08:25:46;;;;;;;3.58;3.20;;;4.70;99.00;;;;;;5057337;28;20069;-65
2021/12/06 08:28:12;;;;;;;3.40;2.70;;;4.60;99.10;;;;;;5054260;28;21452;-65
2021/12/06 08:30:38;;;;;;;3.17;2.75;;;4.50;99.20;;;;;;5055898;28;20528;-65
2021/12/06 08:33:09;;;;;;;2.78;2.47;;;4.50;99.40;;;;;;5062308;28;20051;-65
2021/12/06 08:35:38;;;;;;;2.97;2.70;;;4.40;99.50;;;;;;5057688;28;20044;-65
2021/12/06 08:38:05;;;;;;;4.03;3.20;;;4.50;99.70;;;;;;5060237;28;20036;-65
2021/12/06 08:40:32;;;;;;;4.20;3.25;;;4.60;99.60;;;;;;5056072;28;20056;-65
2021/12/06 08:42:57;;;;;;;3.45;2.90;;;4.70;99.60;;;;;;5055869;28;20490;-63
2021/12/06 08:45:26;;;;;;;2.97;2.60;;;4.80;99.30;;;;;;5060881;28;20122;-65
2021/12/06 08:47:53;;;;;;;6.30;4.03;;;4.80;99.40;;;;;;5056221;28;20229;-64
2021/12/06 08:50:22;;;;;;;4.13;3.10;;;4.90;99.30;;;;;;5055399;28;20458;-63
2021/12/06 08:52:53;;;;;;;3.72;3.03;;;5.00;99.20;;;;;;5055245;28;20048;-64
2021/12/06 08:55:19;;;;;;;4.22;3.42;;;5.10;99.20;;;;;;5057203;28;20040;-64
2021/12/06 08:57:45;;;;;;;7.53;4.50;;;5.20;99.00;;;;;;5056368;28;20039;-66
2021/12/06 09:00:25;;;;;;;7.60;6.35;;;5.30;99.00;;;;;;5056141;28;20481;-65
2021/12/06 09:02:51;;;;;;;18.33;10.02;;;5.30;98.90;;;;;;5058379;28;20028;-64
2021/12/06 09:05:18;;;;;;;4.22;3.67;;;5.40;98.50;;;;;;5061480;28;20036;-64
2021/12/06 09:07:43;;;;;;;4.03;3.53;;;5.20;98.60;;;;;;5062022;28;20028;-64
2021/12/06 09:10:12;;;;;;;16.83;9.10;;;5.10;98.80;;;;;;5062877;28;20028;-65
2021/12/06 09:12:39;;;;;;;46.45;19.05;;;5.10;99.00;;;;;;5061853;28;20035;-65
2021/12/06 09:15:11;;;;;;;24.88;15.48;;;5.20;99.10;;;;;;5064194;28;20108;-65
2021/12/06 09:17:37;;;;;;;23.48;16.80;;;5.30;98.90;;;;;;5061618;28;20025;-66
2021/12/06 09:20:07;;;;;;;25.63;21.13;;;5.40;98.80;;;;;;5062697;28;20490;-65
2021/12/06 09:22:33;;;;;;;29.58;19.75;;;5.40;98.70;;;;;;5058771;28;20032;-65
2021/12/06 09:24:59;;;;;;;30.13;21.25;;;5.40;98.90;;;;;;5058828;28;20032;-64
2021/12/06 09:27:25;;;;;;;28.45;20.33;;;5.50;98.80;;;;;;5060182;28;20056;-64
2021/12/06 09:29:50;;;;;;;28.05;18.98;;;5.50;98.80;;;;;;5059492;28;20128;-66
2021/12/06 09:32:17;;;;;;;28.65;19.20;;;5.60;98.60;;;;;;5061118;28;20040;-64
2021/12/06 09:34:45;;;;;;;23.38;16.10;;;5.60;98.60;;;;;;5057889;28;20030;-66
2021/12/06 09:37:12;;;;;;;24.73;19.30;;;5.60;98.50;;;;;;5058942;28;20487;-65
2021/12/06 09:39:38;;;;;;;23.95;18.10;;;5.70;98.50;;;;;;5060101;28;20093;-65
2021/12/06 09:42:05;;;;;;;22.35;18.48;;;5.80;98.40;;;;;;5055134;28;20506;-65
2021/12/06 09:44:32;;;;;;;28.35;20.23;;;5.80;98.30;;;;;;5060897;28;20517;-64
2021/12/06 09:46:57;;;;;;;43.85;31.50;;;5.80;98.30;;;;;;5060893;28;20028;-65
2021/12/06 09:49:24;;;;;;;18.33;13.40;;;5.90;98.30;;;;;;5060302;28;20025;-65
2021/12/06 09:52:01;;;;;;;14.27;11.10;;;5.80;98.20;;;;;;5059972;28;20149;-64
2021/12/06 09:54:31;;;;;;;42.10;34.67;;;5.70;98.40;;;;;;5056027;28;20033;-65
2021/12/06 09:56:59;;;;;;;14.05;12.45;;;5.80;98.50;;;;;;5061598;28;20183;-65
2021/12/06 09:59:26;;;;;;;10.98;9.35;;;5.90;98.60;;;;;;5062767;28;20055;-65
2021/12/06 10:01:59;;;;;;;14.40;9.70;;;6.00;98.40;;;;;;5059648;28;20025;-65
2021/12/06 10:04:28;;;;;;;12.40;9.77;;;6.00;98.40;;;;;;5064735;28;20108;-65
2021/12/06 10:06:55;;;;;;;15.93;13.50;;;6.10;98.30;;;;;;5061010;28;20032;-65
2021/12/06 10:09:22;;;;;;;11.55;10.23;;;6.10;98.00;;;;;;5060758;28;20134;-65
2021/12/06 10:11:50;;;;;;;11.50;10.13;;;6.10;97.90;;;;;;5060688;28;20037;-65
2021/12/06 10:14:16;;;;;;;10.90;8.90;;;6.10;98.20;;;;;;5061875;28;20036;-64
2021/12/06 10:16:42;;;;;;;8.77;7.28;;;6.10;97.90;;;;;;5059168;28;20034;-65
2021/12/06 10:19:09;;;;;;;7.85;6.88;;;6.10;97.90;;;;;;5058791;28;20467;-64
2021/12/06 10:21:37;;;;;;;7.40;6.00;;;6.10;98.10;;;;;;5063183;28;20096;-64
2021/12/06 10:24:07;;;;;;;8.95;8.05;;;5.90;98.20;;;;;;5060761;28;20028;-64
2021/12/06 10:26:32;;;;;;;9.57;8.57;;;5.80;98.60;;;;;;5062298;28;20040;-65
2021/12/06 10:29:01;;;;;;;9.82;8.25;;;5.70;99.00;;;;;;5060927;28;20028;-65
2021/12/06 10:31:33;;;;;;;14.30;11.95;;;5.90;98.80;;;;;;5057264;28;20040;-64
2021/12/06 10:33:58;;;;;;;17.27;13.77;;;6.10;98.50;;;;;;5060001;28;20033;-65
2021/12/06 10:36:26;;;;;;;23.08;16.80;;;6.20;98.60;;;;;;5056865;28;20036;-64
2021/12/06 10:38:58;;;;;;;32.75;23.77;;;6.30;98.50;;;;;;5056244;28;20029;-65
2021/12/06 10:41:26;;;;;;;29.60;21.48;;;6.50;98.50;;;;;;5059560;28;20074;-64
2021/12/06 10:44:00;;;;;;;30.35;22.15;;;6.60;98.00;;;;;;5060247;28;20565;-64
2021/12/06 10:46:28;;;;;;;35.53;25.65;;;6.60;97.90;;;;;;5059296;28;20115;-64
2021/12/06 10:48:59;;;;;;;31.73;22.25;;;6.70;97.80;;;;;;5056761;28;20102;-64
2021/12/06 10:51:27;;;;;;;15.60;12.02;;;6.80;97.80;;;;;;5053950;28;20100;-65
2021/12/06 10:54:01;;;;;;;7.57;6.20;;;6.90;97.60;;;;;;5058718;28;20049;-64
2021/12/06 10:56:38;;;;;;;7.47;6.00;;;6.90;97.40;;;;;;5058805;28;20174;-65
2021/12/06 10:59:15;;;;;;;9.48;6.65;;;7.00;96.50;;;;;;5060114;28;20044;-64
2021/12/06 11:01:42;;;;;;;9.20;7.47;;;6.90;96.30;;;;;;5060198;28;20029;-65
2021/12/06 11:04:10;;;;;;;9.38;8.35;;;6.80;96.20;;;;;;5059381;28;20028;-64
2021/12/06 11:06:44;;;;;;;40.80;26.42;;;6.70;96.70;;;;;;5058770;28;20030;-65
2021/12/06 11:09:13;;;;;;;47.58;29.15;;;6.70;97.40;;;;;;5057283;28;20051;-64
2021/12/06 11:11:42;;;;;;;25.50;17.30;;;6.70;97.60;;;;;;5058264;28;20665;-65
2021/12/06 11:14:12;;;;;;;13.55;12.02;;;6.70;97.50;;;;;;5057196;28;20602;-65
2021/12/06 11:16:41;;;;;;;13.80;9.95;;;6.80;97.40;;;;;;5058417;28;20053;-65
2021/12/06 11:19:11;;;;;;;11.80;9.32;;;6.90;97.30;;;;;;5057885;28;20012;-65
2021/12/06 11:21:44;;;;;;;8.35;7.30;;;6.90;97.30;;;;;;5041526;28;20120;-64
2021/12/06 11:24:19;;;;;;;17.17;13.80;;;6.90;97.00;;;;;;5057450;28;20047;-65
2021/12/06 11:26:52;;;;;;;21.10;16.23;;;6.80;97.10;;;;;;5061304;28;20028;-64
2021/12/06 11:29:36;;;;;;;34.63;30.90;;;6.80;97.30;;;;;;5058909;28;20032;-65
2021/12/06 11:32:06;;;;;;;12.13;10.30;;;6.80;97.50;;;;;;5057072;28;20052;-65
2021/12/06 11:34:39;;;;;;;9.70;7.95;;;6.80;97.60;;;;;;5057099;28;20025;-65
2021/12/06 11:37:13;;;;;;;12.38;8.85;;;6.80;97.60;;;;;;5058773;28;20047;-65
2021/12/06 11:39:39;;;;;;;11.38;8.52;;;6.80;97.30;;;;;;5058497;28;20785;-64
2021/12/06 11:42:05;;;;;;;11.55;8.18;;;6.90;97.50;;;;;;5056537;28;20032;-64
2021/12/06 11:44:34;;;;;;;9.27;7.07;;;6.90;97.30;;;;;;5057904;28;20029;-65
2021/12/06 11:47:10;;;;;;;9.18;7.15;;;6.80;96.90;;;;;;5057721;28;20028;-65
2021/12/06 11:49:56;;;;;;;9.23;6.25;;;6.70;97.00;;;;;;5056753;28;20103;-63
2021/12/06 11:52:32;;;;;;;10.15;7.65;;;6.70;97.20;;;;;;5056522;28;20035;-63
2021/12/06 11:55:02;;;;;;;11.57;9.57;;;6.60;97.50;;;;;;5054830;28;20174;-65
2021/12/06 11:57:38;;;;;;;16.90;12.18;;;6.60;97.60;;;;;;5056472;28;20032;-64
2021/12/06 12:00:11;;;;;;;20.40;14.98;;;6.70;97.80;;;;;;5058336;28;20031;-63
2021/12/06 12:02:41;;;;;;;18.45;14.50;;;6.80;97.80;;;;;;5039398;28;20033;-64
2021/12/06 12:05:21;;;;;;;16.27;13.95;;;6.90;97.40;;;;;;5057302;28;20028;-66
2021/12/06 12:08:10;;;;;;;15.95;12.10;;;6.90;97.30;;;;;;5057808;28;20159;-65
2021/12/06 12:10:42;;;;;;;25.73;16.92;;;7.00;97.20;;;;;;5058265;28;20035;-65
2021/12/06 12:13:11;;;;;;;21.52;15.70;;;7.00;97.00;;;;;;5062275;28;20455;-64
2021/12/06 12:15:37;;;;;;;18.75;13.73;;;7.10;97.00;;;;;;5059516;28;20025;-64
2021/12/06 12:18:04;;;;;;;16.92;12.52;;;7.20;96.80;;;;;;5060303;28;20071;-64
2021/12/06 12:20:30;;;;;;;16.60;12.05;;;7.20;96.70;;;;;;5059109;28;20035;-64
2021/12/06 12:23:02;;;;;;;29.83;20.25;;;7.30;96.50;;;;;;5060246;28;20490;-65
2021/12/06 12:25:35;;;;;;;27.85;19.42;;;7.40;96.50;;;;;;5062559;28;20113;-64
2021/12/06 12:30:33;;;;;;;16.48;12.77;;;7.50;96.40;;;;;;5055670;28;20048;-65
2021/12/06 12:33:05;;;;;;;16.40;12.70;;;7.60;96.20;;;;;;5063631;28;20039;-65
2021/12/06 12:35:31;;;;;;;24.40;17.52;;;7.60;96.10;;;;;;5059043;28;20086;-64
2021/12/06 12:37:58;;;;;;;17.25;13.07;;;7.60;96.10;;;;;;5056520;28;20053;-64
2021/12/06 12:40:40;;;;;;;11.95;10.10;;;7.60;95.90;;;;;;5061167;28;20065;-65
2021/12/06 12:43:13;;;;;;;9.20;8.02;;;7.60;95.70;;;;;;5058946;28;20443;-64
2021/12/06 12:45:45;;;;;;;7.05;6.18;;;7.60;95.80;;;;;;5062205;28;20066;-63
2021/12/06 12:48:12;;;;;;;6.57;5.45;;;7.70;95.40;;;;;;5062497;28;20048;-65
2021/12/06 12:50:39;;;;;;;5.60;4.13;;;7.70;95.00;;;;;;5059031;28;20094;-65
2021/12/06 12:53:14;;;;;;;4.15;3.70;;;7.70;94.30;;;;;;5060191;28;20575;-65
2021/12/06 12:55:41;;;;;;;6.55;5.45;;;7.50;94.40;;;;;;5058035;28;20048;-64
2021/12/06 12:58:13;;;;;;;12.90;10.27;;;7.50;95.00;;;;;;5060543;28;20114;-64
2021/12/06 13:00:51;;;;;;;15.25;12.45;;;7.50;95.40;;;;;;5060269;28;20060;-64
2021/12/06 13:03:37;;;;;;;8.18;6.05;;;7.50;95.60;;;;;;5058262;28;20024;-64
2021/12/06 13:06:15;;;;;;;4.45;3.67;;;7.50;95.30;;;;;;5062649;28;20508;-65
2021/12/06 13:08:40;;;;;;;3.58;3.15;;;7.60;95.20;;;;;;5058268;28;20066;-65
2021/12/06 13:11:06;;;;;;;4.22;3.45;;;7.60;94.10;;;;;;5057873;28;20492;-65
2021/12/06 13:13:41;;;;;;;3.00;2.58;;;7.50;93.60;;;;;;5042342;28;20090;-64